createdAt,value
2023-05-19T00:01:20.591Z,3.60
2023-05-19T00:03:57.955Z,2.93
2023-05-19T00:06:27.863Z,3.50
2023-05-19T00:08:59.151Z,2.90
2023-05-19T00:11:27.534Z,2.80
2023-05-19T00:13:56.589Z,3.10
2023-05-19T00:16:25.584Z,3.10
2023-05-19T00:18:53.603Z,3.17
2023-05-19T00:21:21.177Z,3.27
2023-05-19T00:23:48.166Z,3.13
2023-05-19T00:26:15.791Z,3.33
2023-05-19T00:28:42.616Z,3.23
2023-05-19T00:31:09.506Z,2.97
2023-05-19T00:33:36.314Z,3.30
2023-05-19T00:36:04.318Z,2.80
2023-05-19T00:38:32.232Z,3.53
2023-05-19T00:40:59.938Z,2.90
2023-05-19T00:43:26.983Z,3.60
2023-05-19T00:45:53.949Z,3.27
2023-05-19T00:48:21.342Z,3.50
2023-05-19T00:50:49.358Z,2.90
2023-05-19T00:53:18.452Z,3.30
2023-05-19T00:55:46.558Z,2.90
2023-05-19T00:58:14.789Z,2.90
2023-05-19T01:00:42.933Z,4.03
2023-05-19T01:03:13.396Z,3.17
2023-05-19T01:05:53.920Z,3.40
2023-05-19T01:08:20.858Z,3.40
2023-05-19T01:10:47.708Z,3.13
2023-05-19T01:13:15.238Z,3.10
2023-05-19T01:16:20.733Z,3.33
2023-05-19T01:19:03.040Z,3.30
2023-05-19T01:22:13.479Z,3.30
2023-05-19T01:25:20.582Z,3.07
2023-05-19T01:27:54.552Z,3.30
2023-05-19T01:30:28.987Z,3.63
2023-05-19T01:33:00.393Z,3.80
2023-05-19T01:35:28.815Z,3.27
2023-05-19T01:37:58.888Z,3.07
2023-05-19T01:40:28.143Z,3.60
2023-05-19T01:42:57.941Z,3.40
2023-05-19T01:45:26.397Z,4.37
2023-05-19T01:47:58.288Z,3.70
2023-05-19T01:50:26.041Z,3.23
2023-05-19T01:52:53.051Z,2.97
2023-05-19T01:55:20.119Z,3.90
2023-05-19T01:58:01.489Z,3.63
2023-05-19T02:00:36.741Z,3.30
2023-05-19T02:03:14.879Z,3.47
2023-05-19T02:06:27.040Z,3.20
2023-05-19T02:09:08.031Z,3.73
2023-05-19T02:11:38.336Z,3.93
2023-05-19T02:14:15.950Z,3.80
2023-05-19T02:16:46.512Z,4.20
2023-05-19T02:19:21.823Z,3.53
2023-05-19T02:21:48.647Z,3.33
2023-05-19T02:24:17.040Z,3.50
2023-05-19T02:26:44.275Z,3.43
2023-05-19T02:29:11.242Z,3.30
2023-05-19T02:31:38.542Z,3.47
2023-05-19T02:34:05.415Z,4.17
2023-05-19T02:36:35.511Z,3.83
2023-05-19T02:39:03.598Z,3.43
2023-05-19T02:41:31.773Z,4.03
2023-05-19T02:43:58.690Z,3.67
2023-05-19T02:46:25.728Z,3.77
2023-05-19T02:48:53.346Z,3.43
2023-05-19T02:51:20.193Z,3.17
2023-05-19T02:53:47.081Z,3.30
2023-05-19T02:56:13.925Z,3.93
2023-05-19T02:58:43.335Z,3.53
2023-05-19T03:01:10.374Z,3.50
2023-05-19T03:03:37.339Z,3.53
2023-05-19T03:06:05.259Z,3.60
2023-05-19T03:08:32.080Z,3.20
2023-05-19T03:10:58.894Z,3.07
2023-05-19T03:13:25.743Z,3.00
2023-05-19T03:15:53.390Z,3.20
2023-05-19T03:18:20.312Z,3.00
2023-05-19T03:20:47.289Z,3.03
2023-05-19T03:23:14.090Z,3.40
2023-05-19T03:25:40.937Z,2.83
2023-05-19T03:28:07.773Z,3.50
2023-05-19T03:30:34.753Z,3.47
2023-05-19T03:33:01.941Z,3.40
2023-05-19T03:35:29.328Z,3.40
2023-05-19T03:37:56.126Z,3.70
2023-05-19T03:40:23.051Z,3.97
2023-05-19T03:42:49.924Z,4.00
2023-05-19T03:45:16.779Z,3.60
2023-05-19T03:47:43.685Z,3.77
2023-05-19T03:50:10.810Z,3.50
2023-05-19T03:52:38.869Z,3.57
2023-05-19T03:55:07.347Z,3.67
2023-05-19T03:57:34.193Z,3.50
2023-05-19T04:00:01.034Z,3.77
2023-05-19T04:02:27.977Z,3.87
2023-05-19T04:04:55.037Z,3.43
2023-05-19T04:07:22.071Z,3.50
2023-05-19T04:09:49.941Z,3.43
2023-05-19T04:12:16.846Z,3.17
2023-05-19T04:14:43.688Z,3.30
2023-05-19T04:17:10.657Z,3.57
2023-05-19T04:19:42.194Z,4.17
2023-05-19T04:22:09.645Z,3.10
2023-05-19T04:24:36.663Z,3.50
2023-05-19T04:27:05.114Z,3.93
2023-05-19T04:29:34.333Z,3.73
2023-05-19T04:32:01.502Z,3.30
2023-05-19T04:34:29.272Z,3.30
2023-05-19T04:36:58.811Z,3.47
2023-05-19T04:39:26.656Z,3.27
2023-05-19T04:41:55.474Z,3.40
2023-05-19T04:44:22.370Z,4.00
2023-05-19T04:46:58.592Z,3.17
2023-05-19T04:49:28.177Z,11.67
2023-05-19T04:52:01.685Z,3.60
2023-05-19T04:54:29.744Z,3.03
2023-05-19T04:56:56.651Z,3.40
2023-05-19T04:59:23.671Z,3.67
2023-05-19T05:01:51.553Z,3.20
2023-05-19T05:04:20.211Z,3.90
2023-05-19T05:06:49.184Z,3.37
2023-05-19T05:09:17.054Z,3.47
2023-05-19T05:11:54.045Z,3.23
2023-05-19T05:14:22.320Z,3.53
2023-05-19T05:16:50.214Z,3.67
2023-05-19T05:19:17.520Z,3.67
2023-05-19T05:21:44.640Z,3.20
2023-05-19T05:24:14.595Z,3.50
2023-05-19T05:26:45.522Z,3.00
2023-05-19T05:29:14.829Z,3.30
2023-05-19T05:31:41.697Z,3.67
2023-05-19T05:34:08.619Z,3.10
2023-05-19T05:36:35.517Z,4.10
2023-05-19T05:39:02.848Z,3.57
2023-05-19T05:41:35.717Z,3.30
2023-05-19T05:44:05.849Z,3.60
2023-05-19T05:46:33.269Z,3.13
2023-05-19T05:49:00.412Z,3.70
2023-05-19T05:51:27.540Z,3.40
2023-05-19T05:53:55.446Z,3.60
2023-05-19T05:56:25.672Z,3.60
2023-05-19T05:58:54.042Z,3.90
2023-05-19T06:01:21.210Z,4.23
2023-05-19T06:03:48.145Z,3.43
2023-05-19T06:06:19.801Z,3.20
2023-05-19T06:08:52.673Z,3.90
2023-05-19T06:11:26.430Z,3.40
2023-05-19T06:13:53.239Z,4.07
2023-05-19T06:16:20.858Z,4.33
2023-05-19T06:18:47.898Z,3.53
2023-05-19T06:21:17.821Z,4.00
2023-05-19T06:23:44.715Z,3.73
2023-05-19T06:26:11.754Z,3.53
2023-05-19T06:28:38.728Z,4.47
2023-05-19T06:31:06.337Z,3.87
2023-05-19T06:33:34.985Z,4.07
2023-05-19T06:36:02.563Z,4.10
2023-05-19T06:38:29.392Z,3.43
2023-05-19T06:40:56.443Z,4.03
2023-05-19T06:43:23.313Z,4.20
2023-05-19T06:45:51.600Z,4.10
2023-05-19T06:48:23.875Z,3.93
2023-05-19T06:50:51.996Z,3.90
2023-05-19T06:53:20.236Z,4.10
2023-05-19T06:55:58.794Z,4.00
2023-05-19T06:58:27.701Z,3.40
2023-05-19T07:00:54.931Z,3.70
2023-05-19T07:03:23.196Z,4.90
2023-05-19T07:06:04.528Z,3.70
2023-05-19T07:08:39.581Z,3.40
2023-05-19T07:11:14.429Z,3.40
2023-05-19T07:13:44.693Z,3.80
2023-05-19T07:16:11.749Z,3.73
2023-05-19T07:18:38.658Z,3.20
2023-05-19T07:21:11.968Z,3.83
2023-05-19T07:23:42.560Z,3.60
2023-05-19T07:26:11.091Z,3.87
2023-05-19T07:28:40.702Z,4.00
2023-05-19T07:31:08.623Z,3.97
2023-05-19T07:33:37.507Z,3.83
2023-05-19T07:36:09.897Z,3.87
2023-05-19T07:38:38.248Z,3.73
2023-05-19T07:41:05.125Z,3.33
2023-05-19T07:43:32.076Z,3.50
2023-05-19T07:46:06.315Z,3.67
2023-05-19T07:48:33.452Z,3.33
2023-05-19T07:51:00.640Z,4.00
2023-05-19T07:53:28.312Z,3.67
2023-05-19T07:56:06.395Z,4.07
2023-05-19T07:58:33.801Z,3.57
2023-05-19T08:01:00.949Z,3.47
2023-05-19T08:03:28.148Z,3.60
2023-05-19T08:06:06.502Z,3.80
2023-05-19T08:11:41.721Z,3.60
2023-05-19T08:14:13.318Z,3.13
2023-05-19T08:16:47.486Z,3.40
2023-05-19T08:19:15.990Z,3.37
2023-05-19T08:21:42.933Z,3.30
2023-05-19T08:24:09.762Z,2.90
2023-05-19T08:26:37.859Z,3.93
2023-05-19T08:29:05.056Z,3.13
2023-05-19T08:31:32.131Z,3.20
2023-05-19T08:33:59.831Z,3.50
2023-05-19T08:36:29.036Z,3.10
2023-05-19T08:38:55.870Z,3.40
2023-05-19T08:41:23.611Z,3.40
2023-05-19T08:43:52.804Z,3.00
2023-05-19T08:46:25.202Z,3.83
2023-05-19T08:48:58.965Z,3.53
2023-05-19T08:51:55.787Z,3.70
2023-05-19T08:54:29.580Z,3.27
2023-05-19T08:57:06.546Z,3.80
2023-05-19T08:59:48.769Z,3.67
2023-05-19T09:02:16.864Z,3.87
2023-05-19T09:04:46.376Z,3.40
2023-05-19T09:07:15.278Z,3.33
2023-05-19T09:09:45.061Z,2.93
2023-05-19T09:12:15.617Z,3.20
2023-05-19T09:14:42.821Z,2.83
2023-05-19T09:17:10.068Z,2.63
2023-05-19T09:19:43.387Z,3.37
2023-05-19T09:22:10.260Z,2.83
2023-05-19T09:24:38.738Z,3.10
2023-05-19T09:27:10.679Z,2.60
2023-05-19T09:29:41.780Z,2.47
2023-05-19T09:32:12.786Z,2.60
2023-05-19T09:34:42.679Z,3.60
2023-05-19T09:37:14.585Z,3.10
2023-05-19T09:39:50.085Z,2.33
2023-05-19T09:42:29.064Z,2.70
2023-05-19T09:45:02.142Z,2.60
2023-05-19T09:47:38.342Z,2.87
2023-05-19T09:50:08.762Z,2.90
2023-05-19T09:52:39.676Z,2.30
2023-05-19T09:55:15.530Z,2.30
2023-05-19T09:57:45.958Z,2.47
2023-05-19T10:00:18.313Z,2.80
2023-05-19T10:02:47.670Z,2.90
2023-05-19T10:05:23.104Z,2.57
2023-05-19T10:07:55.828Z,2.47
2023-05-19T10:10:27.231Z,2.53
2023-05-19T10:12:57.637Z,2.40
2023-05-19T10:15:34.458Z,2.47
2023-05-19T10:18:04.409Z,3.30
2023-05-19T10:20:31.888Z,2.90
2023-05-19T10:22:58.931Z,2.70
2023-05-19T10:25:27.731Z,2.73
2023-05-19T10:28:06.745Z,2.57
2023-05-19T10:30:37.491Z,3.33
2023-05-19T10:33:08.028Z,2.50
2023-05-19T10:36:02.955Z,2.33
2023-05-19T10:38:58.588Z,2.80
2023-05-19T10:41:47.235Z,2.40
2023-05-19T10:44:23.422Z,3.13
2023-05-19T10:46:50.956Z,2.70
2023-05-19T10:49:24.275Z,3.47
2023-05-19T10:51:52.749Z,3.80
2023-05-19T10:54:42.362Z,3.63
2023-05-19T10:57:20.629Z,3.07
2023-05-19T10:59:54.890Z,2.83
2023-05-19T11:02:42.818Z,3.03
2023-05-19T11:05:13.142Z,2.60
2023-05-19T11:07:43.045Z,3.03
2023-05-19T11:10:10.316Z,2.37
2023-05-19T11:12:49.040Z,2.53
2023-05-19T11:15:17.485Z,2.37
2023-05-19T11:17:49.686Z,3.07
2023-05-19T11:20:29.271Z,2.87
2023-05-19T11:23:09.380Z,3.77
2023-05-19T11:25:47.636Z,2.77
2023-05-19T11:28:29.888Z,2.77
2023-05-19T11:31:01.448Z,3.00
2023-05-19T11:33:29.721Z,2.23
2023-05-19T11:35:58.780Z,3.73
2023-05-19T11:38:26.998Z,3.30
2023-05-19T11:40:54.408Z,2.87
2023-05-19T11:43:30.733Z,2.90
2023-05-19T11:45:58.679Z,2.07
2023-05-19T11:48:26.653Z,2.70
2023-05-19T11:50:53.794Z,2.37
2023-05-19T11:53:22.692Z,2.43
2023-05-19T11:55:54.969Z,2.47
2023-05-19T11:58:27.062Z,2.20
2023-05-19T12:00:54.441Z,2.43
2023-05-19T12:03:23.173Z,2.43
2023-05-19T12:05:51.910Z,2.53
2023-05-19T12:08:32.727Z,3.30
2023-05-19T12:10:59.768Z,3.50
2023-05-19T12:13:27.647Z,2.47
2023-05-19T12:15:59.940Z,3.00
2023-05-19T12:18:34.983Z,2.47
2023-05-19T12:21:05.217Z,2.77
2023-05-19T12:23:32.954Z,3.13
2023-05-19T12:26:01.216Z,2.57
2023-05-19T12:28:31.567Z,2.37
2023-05-19T12:31:01.545Z,2.57
2023-05-19T12:33:28.622Z,2.57
2023-05-19T12:35:56.517Z,2.83
2023-05-19T12:38:23.472Z,2.70
2023-05-19T12:40:53.025Z,2.40
2023-05-19T12:43:24.110Z,2.50
2023-05-19T12:45:52.648Z,2.90
2023-05-19T12:48:22.921Z,2.67
2023-05-19T12:50:56.047Z,2.43
2023-05-19T12:53:28.844Z,2.53
2023-05-19T12:55:56.535Z,3.23
2023-05-19T12:58:24.509Z,3.03
2023-05-19T13:01:01.567Z,3.30
2023-05-19T13:03:28.954Z,3.43
2023-05-19T13:05:55.866Z,2.70
2023-05-19T13:08:24.286Z,2.37
2023-05-19T13:10:56.606Z,2.30
2023-05-19T13:13:24.805Z,2.30
2023-05-19T13:15:51.797Z,2.47
2023-05-19T13:18:18.794Z,2.37
2023-05-19T13:20:51.730Z,2.10
2023-05-19T13:23:19.734Z,2.87
2023-05-19T13:25:47.029Z,4.50
2023-05-19T13:28:14.460Z,2.27
2023-05-19T13:30:45.327Z,2.23
2023-05-19T13:33:18.303Z,2.70
2023-05-19T13:35:45.188Z,2.00
2023-05-19T13:38:12.204Z,2.00
2023-05-19T13:40:40.142Z,2.37
2023-05-19T13:43:12.714Z,2.63
2023-05-19T13:45:46.483Z,2.30
2023-05-19T13:48:15.138Z,2.50
2023-05-19T13:50:42.764Z,2.23
2023-05-19T13:53:10.192Z,2.53
2023-05-19T13:55:41.356Z,2.00
2023-05-19T13:58:15.859Z,1.77
2023-05-19T14:00:43.060Z,1.90
2023-05-19T14:03:10.534Z,2.50
2023-05-19T14:05:37.605Z,2.00
2023-05-19T14:08:05.868Z,1.90
2023-05-19T14:10:35.667Z,2.03
2023-05-19T14:13:30.376Z,2.20
2023-05-19T14:15:51.630Z,1.70
2023-05-19T14:18:19.207Z,1.80
2023-05-19T14:20:46.112Z,2.20
2023-05-19T14:23:21.369Z,2.53
2023-05-19T14:25:49.766Z,2.40
2023-05-19T14:28:18.139Z,1.93
2023-05-19T14:30:45.345Z,2.10
2023-05-19T14:33:12.357Z,2.00
2023-05-19T14:35:39.281Z,1.97
2023-05-19T14:38:09.762Z,1.87
2023-05-19T14:40:38.442Z,2.30
2023-05-19T14:43:05.276Z,2.10
2023-05-19T14:45:32.099Z,2.37
2023-05-19T14:47:59.084Z,1.77
2023-05-19T14:50:27.859Z,1.90
2023-05-19T14:53:05.904Z,1.63
2023-05-19T14:55:33.984Z,2.10
2023-05-19T14:58:00.883Z,2.00
2023-05-19T15:00:32.090Z,1.90
2023-05-19T15:02:59.738Z,2.33
2023-05-19T15:05:26.640Z,1.77
2023-05-19T15:07:53.566Z,1.83
2023-05-19T15:10:22.496Z,2.00
2023-05-19T15:12:53.327Z,1.87
2023-05-19T15:15:21.099Z,2.23
2023-05-19T15:17:48.217Z,1.87
2023-05-19T15:20:15.253Z,1.80
2023-05-19T15:22:42.305Z,2.43
2023-05-19T15:25:14.519Z,2.00
2023-05-19T15:27:42.131Z,2.10
2023-05-19T15:30:09.323Z,2.30
2023-05-19T15:32:38.474Z,1.87
2023-05-19T15:35:06.313Z,1.80
2023-05-19T15:37:33.151Z,2.60
2023-05-19T15:39:59.994Z,1.97
2023-05-19T15:42:26.999Z,1.90
2023-05-19T15:44:59.004Z,2.17
2023-05-19T15:47:29.377Z,1.87
2023-05-19T15:49:56.294Z,1.63
2023-05-19T15:52:25.137Z,1.83
2023-05-19T15:54:53.017Z,2.20
2023-05-19T15:57:51.883Z,2.03
2023-05-19T16:00:29.468Z,2.10
2023-05-19T16:02:56.496Z,1.70
2023-05-19T16:05:25.959Z,2.07
2023-05-19T16:07:57.456Z,1.90
2023-05-19T16:10:27.638Z,1.93
2023-05-19T16:12:58.682Z,2.37
2023-05-19T16:15:26.826Z,2.07
2023-05-19T16:17:55.790Z,1.87
2023-05-19T16:20:27.019Z,1.97
2023-05-19T16:22:54.572Z,1.87
2023-05-19T16:25:21.629Z,2.20
2023-05-19T16:27:52.221Z,2.03
2023-05-19T16:30:24.193Z,2.00
2023-05-19T16:32:53.320Z,2.00
2023-05-19T16:35:23.207Z,2.13
2023-05-19T16:37:50.035Z,2.00
2023-05-19T16:40:16.901Z,2.00
2023-05-19T16:42:43.793Z,2.40
2023-05-19T16:45:10.754Z,2.10
2023-05-19T16:47:37.708Z,2.33
2023-05-19T16:50:04.976Z,2.50
2023-05-19T16:52:34.659Z,2.83
2023-05-19T16:55:02.264Z,2.60
2023-05-19T16:57:29.093Z,2.43
2023-05-19T16:59:56.653Z,2.17
2023-05-19T17:02:23.498Z,2.60
2023-05-19T17:04:50.529Z,2.03
2023-05-19T17:07:17.905Z,2.13
2023-05-19T17:09:50.821Z,2.40
2023-05-19T17:12:18.349Z,3.20
2023-05-19T17:14:46.284Z,2.60
2023-05-19T17:17:13.334Z,1.90
2023-05-19T17:19:42.133Z,2.07
2023-05-19T17:22:15.990Z,2.53
2023-05-19T17:24:43.737Z,2.30
2023-05-19T17:27:10.710Z,2.43
2023-05-19T17:29:45.281Z,2.00
2023-05-19T17:32:13.428Z,1.73
2023-05-19T17:34:40.275Z,2.37
2023-05-19T17:37:07.049Z,1.90
2023-05-19T17:39:34.190Z,1.90
2023-05-19T17:42:03.592Z,1.83
2023-05-19T17:44:38.340Z,1.90
2023-05-19T17:47:08.950Z,2.13
2023-05-19T17:49:38.797Z,2.30
2023-05-19T17:52:06.828Z,1.90
2023-05-19T17:54:34.065Z,1.80
2023-05-19T17:57:06.137Z,1.90
2023-05-19T17:59:35.585Z,2.00
2023-05-19T18:02:03.974Z,1.93
2023-05-19T18:04:31.120Z,2.10
2023-05-19T18:06:58.935Z,1.90
2023-05-19T18:09:28.938Z,1.80
2023-05-19T18:12:06.574Z,1.90
2023-05-19T18:14:33.689Z,2.40
2023-05-19T18:17:00.993Z,2.40
2023-05-19T18:19:29.698Z,2.33
2023-05-19T18:22:02.312Z,1.87
2023-05-19T18:24:29.815Z,2.20
2023-05-19T18:26:56.863Z,2.00
2023-05-19T18:29:23.694Z,2.10
2023-05-19T18:31:50.644Z,1.90
2023-05-19T18:34:19.401Z,2.03
2023-05-19T18:36:48.043Z,2.07
2023-05-19T18:39:14.945Z,2.10
2023-05-19T18:41:43.012Z,2.73
2023-05-19T18:44:14.077Z,2.23
2023-05-19T18:46:44.291Z,2.30
2023-05-19T18:49:13.227Z,2.60
2023-05-19T18:51:40.279Z,2.30
2023-05-19T18:54:07.529Z,2.37
2023-05-19T18:56:50.279Z,2.43
2023-05-19T18:59:25.250Z,2.40
2023-05-19T19:01:56.775Z,2.47
2023-05-19T19:04:23.681Z,2.13
2023-05-19T19:06:51.575Z,2.30
2023-05-19T19:09:19.305Z,2.67
2023-05-19T19:11:48.124Z,2.37
2023-05-19T19:14:17.230Z,2.50
2023-05-19T19:16:44.461Z,1.90
2023-05-19T19:19:11.388Z,2.10
2023-05-19T19:21:38.364Z,2.23
2023-05-19T19:24:08.135Z,2.87
2023-05-19T19:26:35.819Z,2.00
2023-05-19T19:29:02.641Z,2.40
2023-05-19T19:31:29.512Z,2.20
2023-05-19T19:34:00.201Z,2.60
2023-05-19T19:36:27.786Z,2.37
2023-05-19T19:38:54.829Z,2.67
2023-05-19T19:41:21.765Z,2.53
2023-05-19T19:43:48.603Z,2.10
2023-05-19T19:46:20.286Z,1.97
2023-05-19T19:48:48.140Z,2.33
2023-05-19T19:51:15.095Z,2.40
2023-05-19T19:53:45.966Z,2.50
2023-05-19T19:56:16.110Z,2.50
2023-05-19T19:58:42.934Z,2.50
2023-05-19T20:01:09.854Z,2.60
2023-05-19T20:03:40.264Z,2.50
2023-05-19T20:06:11.206Z,2.63
2023-05-19T20:08:38.045Z,2.40
2023-05-19T20:11:05.076Z,2.40
2023-05-19T20:13:33.930Z,2.10
2023-05-19T20:16:01.247Z,2.80
2023-05-19T20:18:30.004Z,2.50
2023-05-19T20:21:13.296Z,2.37
2023-05-19T20:23:46.790Z,2.27
2023-05-19T20:26:17.767Z,2.60
2023-05-19T20:28:47.442Z,2.67
2023-05-19T20:31:15.255Z,2.40
2023-05-19T20:33:42.167Z,2.57
2023-05-19T20:36:11.149Z,2.53
2023-05-19T20:38:38.579Z,2.57
2023-05-19T20:41:12.228Z,2.40
2023-05-19T20:43:39.235Z,2.50
2023-05-19T20:46:06.341Z,2.37
2023-05-19T20:48:35.286Z,2.70
2023-05-19T20:51:21.268Z,2.60
2023-05-19T20:53:54.565Z,2.50
2023-05-19T20:56:22.975Z,2.60
2023-05-19T20:58:49.801Z,2.60
2023-05-19T21:01:16.670Z,2.50
2023-05-19T21:03:43.489Z,2.90
2023-05-19T21:06:12.474Z,2.77
2023-05-19T21:08:42.325Z,3.07
2023-05-19T21:11:09.794Z,2.80
2023-05-19T21:13:42.499Z,2.57
2023-05-19T21:16:12.433Z,2.70
2023-05-19T21:18:42.167Z,2.93
2023-05-19T21:21:09.874Z,2.70
2023-05-19T21:23:36.730Z,3.07
2023-05-19T21:26:04.543Z,2.67
2023-05-19T21:28:31.458Z,2.93
2023-05-19T21:30:59.250Z,2.90
2023-05-19T21:33:26.096Z,2.57
2023-05-19T21:35:53.059Z,2.70
2023-05-19T21:38:23.933Z,2.67
2023-05-19T21:40:51.980Z,2.70
2023-05-19T21:43:19.676Z,2.73
2023-05-19T21:45:46.521Z,2.63
2023-05-19T21:48:13.456Z,2.80
2023-05-19T21:50:42.248Z,2.70
2023-05-19T21:53:11.576Z,2.90
2023-05-19T21:55:39.586Z,2.60
2023-05-19T21:58:06.479Z,3.10
2023-05-19T22:00:33.599Z,2.80
2023-05-19T22:03:00.759Z,2.47
2023-05-19T22:05:30.040Z,2.70
2023-05-19T22:07:57.027Z,2.90
2023-05-19T22:10:24.261Z,3.13
2023-05-19T22:12:51.136Z,2.97
2023-05-19T22:15:18.240Z,3.43
2023-05-19T22:17:45.315Z,3.40
2023-05-19T22:20:12.852Z,2.93
2023-05-19T22:22:39.622Z,2.80
2023-05-19T22:25:07.253Z,2.77
2023-05-19T22:27:34.071Z,3.10
2023-05-19T22:30:00.950Z,2.90
2023-05-19T22:32:27.896Z,2.97
2023-05-19T22:34:54.858Z,2.77
2023-05-19T22:37:24.137Z,2.97
2023-05-19T22:39:51.750Z,2.93
2023-05-19T22:42:18.858Z,2.80
2023-05-19T22:44:46.143Z,3.10
2023-05-19T22:47:14.041Z,2.47
2023-05-19T22:49:41.769Z,3.13
2023-05-19T22:52:12.085Z,2.80
2023-05-19T22:54:39.107Z,2.40
2023-05-19T22:57:06.706Z,2.90
2023-05-19T22:59:34.033Z,2.53
2023-05-19T23:02:01.241Z,2.53
2023-05-19T23:04:28.105Z,2.43
2023-05-19T23:06:55.127Z,2.57
2023-05-19T23:09:22.167Z,2.60
2023-05-19T23:11:49.080Z,2.77
2023-05-19T23:14:16.015Z,2.63
2023-05-19T23:16:42.862Z,3.03
2023-05-19T23:19:09.743Z,2.90
2023-05-19T23:21:36.656Z,2.70
2023-05-19T23:24:03.616Z,2.27
2023-05-19T23:26:30.532Z,2.97
2023-05-19T23:28:57.399Z,2.80
2023-05-19T23:31:24.348Z,2.93
2023-05-19T23:33:51.260Z,3.40
2023-05-19T23:36:18.549Z,3.17
2023-05-19T23:38:45.349Z,2.90
2023-05-19T23:41:12.331Z,2.80
2023-05-19T23:43:39.651Z,3.13
2023-05-19T23:46:06.945Z,3.30
2023-05-19T23:48:33.987Z,2.80
2023-05-19T23:51:01.063Z,3.00
2023-05-19T23:53:28.308Z,3.00
2023-05-19T23:55:56.433Z,3.20
2023-05-19T23:58:24.124Z,3.20
